Terminal Aerodrome Forecast
Issued by NWS Brownsville, TX

Home | Current Version | Previous Version | Text Only | Print | Product List | Glossary On
Versions: 1 2 3 4 5 6 7 8 9 10 11 12
199
FTUS44 KBRO 241120
TAFHRL
TAF
KHRL 241120Z 2412/2512 15010KT P6SM SCT025
      TEMPO 2412/2413 BKN025
     FM241500 15020G28KT P6SM FEW045
     FM250100 15010KT P6SM SKC=

USA.gov is the U.S. government's official web portal to all federal, state and local government web resources and services.